Time;durP1;ratioP1;P1;durP2;ratioP2;P2;SDS_P1;SDS_P2;PMS_P1;PMS_P2;Temp;Humidity;BMP_temperature;BMP_pressure;BME280_temperature;BME280_humidity;BME280_pressure;Samples;Min_cycle;Max_cycle;Signal;HPM_P1;HPM_P2
2023/07/19 00:09:36;;;;;;;4.40;3.60;;;;;;;22.59;57.05;98860.59;7284832;40;21572;31
2023/07/19 00:20:17;;;;;;;4.45;3.60;;;;;;;22.36;57.51;98870.69;7317610;39;20696;31
2023/07/19 00:25:37;;;;;;;4.70;3.40;;;;;;;22.38;57.66;98852.03;7336376;39;20415;31
2023/07/19 00:31:16;;;;;;;6.80;3.60;;;;;;;22.32;57.65;98863.19;7293479;40;20268;31
2023/07/19 00:36:52;;;;;;;4.80;3.65;;;;;;;22.37;57.61;98861.38;7291523;39;20260;31
2023/07/19 00:42:12;;;;;;;5.80;3.58;;;;;;;22.33;57.61;98862.97;7245604;40;20332;31
2023/07/19 00:47:47;;;;;;;3.75;3.30;;;;;;;22.37;57.43;98866.03;7214731;40;20254;31
2023/07/19 00:53:23;;;;;;;6.75;3.60;;;;;;;22.41;57.91;98856.19;7211365;40;20441;31
2023/07/19 00:58:58;;;;;;;8.48;3.80;;;;;;;22.58;57.68;98858.91;7185949;40;20281;31
2023/07/19 01:04:33;;;;;;;5.80;3.47;;;;;;;22.78;57.34;98853.72;7152980;40;20262;31
2023/07/19 01:10:06;;;;;;;4.95;3.80;;;;;;;22.87;57.00;98855.78;7176712;40;20342;31
2023/07/19 01:15:41;;;;;;;4.55;3.15;;;;;;;22.90;56.84;98857.22;7211615;40;20277;31
2023/07/19 01:21:01;;;;;;;6.55;3.75;;;;;;;22.97;56.81;98862.50;7198407;40;20249;31
2023/07/19 01:26:35;;;;;;;6.78;3.78;;;;;;;22.97;56.81;98854.25;7216114;40;20250;31
2023/07/19 01:31:52;;;;;;;6.40;3.45;;;;;;;23.07;57.06;98860.75;7193387;40;20282;31
2023/07/19 01:37:28;;;;;;;5.85;3.30;;;;;;;23.10;56.31;98856.63;7207802;40;20470;31
2023/07/19 01:43:00;;;;;;;4.78;3.35;;;;;;;23.14;56.62;98844.88;7178289;40;20541;31
2023/07/19 01:53:36;;;;;;;6.85;3.42;;;;;;;23.27;56.53;98844.47;7174543;40;21148;31
2023/07/19 02:04:13;;;;;;;6.00;3.40;;;;;;;23.26;56.40;98828.22;7260513;40;21035;31
2023/07/19 02:09:33;;;;;;;5.17;3.73;;;;;;;23.21;56.24;98818.00;7217463;40;20333;31
2023/07/19 02:15:06;;;;;;;5.93;3.45;;;;;;;23.25;56.30;98818.31;7240393;40;20245;31
2023/07/19 02:20:42;;;;;;;9.52;4.18;;;;;;;23.29;55.99;98813.97;7255499;40;20261;31
2023/07/19 02:26:17;;;;;;;5.20;3.80;;;;;;;23.30;56.34;98823.91;7236078;40;20249;31
2023/07/19 02:31:52;;;;;;;7.45;4.15;;;;;;;23.29;56.38;98820.31;7180159;40;20277;31
2023/07/19 02:37:25;;;;;;;4.85;3.70;;;;;;;23.24;57.47;98824.91;7134784;40;20538;31
2023/07/19 02:48:01;;;;;;;7.57;3.92;;;;;;;23.27;56.97;98830.72;7157590;40;21798;31
2023/07/19 02:58:41;;;;;;;5.40;3.73;;;;;;;23.10;57.41;98838.22;7274044;39;20305;31
2023/07/19 03:09:19;;;;;;;5.85;4.00;;;;;;;22.90;57.72;98858.03;7236816;40;20277;31
2023/07/19 03:14:54;;;;;;;5.90;3.46;;;;;;;22.72;58.94;98855.59;7183090;40;20343;31
2023/07/19 03:20:14;;;;;;;5.65;3.80;;;;;;;22.68;58.81;98856.31;7211611;40;20268;31
2023/07/19 03:25:49;;;;;;;6.13;3.83;;;;;;;22.62;59.19;98862.81;7256095;40;20253;31
2023/07/19 03:31:27;;;;;;;6.12;4.03;;;;;;;22.55;59.09;98863.00;7249999;40;20250;31
2023/07/19 03:36:44;;;;;;;5.50;4.00;;;;;;;22.56;58.64;98872.06;7213112;40;20380;31
2023/07/19 03:42:19;;;;;;;7.05;4.32;;;;;;;22.49;59.43;98880.50;7240322;40;20661;31
2023/07/19 03:47:52;;;;;;;7.22;4.08;;;;;;;22.39;59.41;98883.06;7185798;40;20243;31
2023/07/19 03:53:09;;;;;;;7.12;3.83;;;;;;;22.31;59.58;98886.25;7146043;40;20259;31
2023/07/19 03:58:48;;;;;;;22.00;19.00;;;;;;;22.17;60.93;98891.22;7196174;40;20522;31
2023/07/19 04:04:20;;;;;;;8.47;5.60;;;;;;;22.12;60.08;98895.78;7169372;40;20558;31
2023/07/19 04:09:52;;;;;;;10.93;5.70;;;;;;;22.17;60.79;98888.47;7147241;40;20281;31
2023/07/19 04:15:10;;;;;;;8.98;4.72;;;;;;;22.19;61.11;98896.47;7173568;40;20294;31
2023/07/19 04:20:45;;;;;;;7.13;4.03;;;;;;;22.17;60.93;98887.66;7167672;40;20360;31
2023/07/19 04:26:20;;;;;;;5.53;3.70;;;;;;;22.20;60.50;98890.75;7174994;40;20270;31
2023/07/19 04:31:52;;;;;;;6.50;4.10;;;;;;;22.24;60.71;98891.91;7182092;40;20431;31
2023/07/19 04:37:25;;;;;;;8.10;4.35;;;;;;;22.16;61.33;98899.72;7193552;40;20333;31
2023/07/19 04:42:43;;;;;;;4.62;4.12;;;;;;;22.24;61.05;98902.91;7172064;40;21412;31
2023/07/19 04:48:15;;;;;;;6.20;4.07;;;;;;;22.26;61.53;98902.63;7162968;40;20276;31
2023/07/19 04:58:52;;;;;;;5.43;4.85;;;;;;;22.22;62.11;98907.78;7149854;40;20505;31
2023/07/19 05:04:24;;;;;;;6.80;4.62;;;;;;;22.31;61.75;98906.31;7037334;40;20327;31
2023/07/19 05:09:56;;;;;;;8.03;4.97;;;;;;;22.33;61.75;98906.06;7209589;40;20261;31
2023/07/19 05:15:27;;;;;;;6.90;4.50;;;;;;;22.30;62.10;98912.03;7192544;40;20265;31
2023/07/19 05:21:00;;;;;;;5.80;4.10;;;;;;;22.44;61.56;98913.38;7163974;40;20356;31
2023/07/19 05:26:34;;;;;;;8.10;4.44;;;;;;;22.50;61.60;98917.03;7186569;40;20322;31
2023/07/19 05:32:07;;;;;;;5.75;4.45;;;;;;;22.53;62.20;98922.84;7218425;40;20316;31
2023/07/19 05:37:42;;;;;;;6.98;4.46;;;;;;;22.64;62.10;98910.94;7241083;40;20330;31
2023/07/19 05:43:18;;;;;;;6.35;4.40;;;;;;;22.78;61.80;98922.44;7221486;40;20348;31
2023/07/19 05:53:57;;;;;;;7.07;4.20;;;;;;;23.17;59.79;98910.34;7236739;40;21042;31
2023/07/19 06:04:48;;;;;;;7.25;3.45;;;;;;;23.55;57.48;98912.25;7270883;39;21232;31
2023/07/19 06:10:23;;;;;;;6.80;3.70;;;;;;;23.81;56.64;98916.13;7234028;40;20249;31
2023/07/19 06:15:43;;;;;;;11.23;3.20;;;;;;;23.91;56.65;98916.22;7201551;40;20253;31
2023/07/19 06:21:17;;;;;;;5.20;3.63;;;;;;;24.16;54.83;98929.44;7236611;40;20260;31
2023/07/19 06:26:53;;;;;;;7.07;3.50;;;;;;;24.37;53.28;98924.94;7162730;40;20269;31
2023/07/19 06:32:29;;;;;;;7.70;3.45;;;;;;;24.58;53.81;98924.84;7203440;40;20262;31
2023/07/19 06:38:03;;;;;;;5.07;2.80;;;;;;;24.82;52.48;98922.53;7175369;40;20492;31
2023/07/19 06:43:37;;;;;;;5.28;3.14;;;;;;;24.97;51.96;98925.41;7193232;40;20253;31
2023/07/19 06:49:12;;;;;;;7.35;3.10;;;;;;;25.13;51.48;98923.59;7144539;40;20330;31
2023/07/19 06:54:32;;;;;;;5.04;2.88;;;;;;;25.28;50.72;98929.16;7175171;40;20250;31
2023/07/19 07:00:08;;;;;;;6.50;3.20;;;;;;;25.41;50.76;98930.59;7174377;40;20250;31
2023/07/19 07:05:43;;;;;;;4.78;3.10;;;;;;;25.55;50.07;98929.88;7160284;40;20695;31
2023/07/19 07:11:18;;;;;;;4.05;2.70;;;;;;;25.59;49.36;98938.44;7202919;40;20274;31
2023/07/19 07:16:54;;;;;;;4.30;2.60;;;;;;;25.71;47.91;98932.69;7186661;40;20269;31
2023/07/19 07:22:26;;;;;;;4.65;2.90;;;;;;;25.85;48.12;98939.34;7197771;40;20277;31
2023/07/19 07:33:03;;;;;;;4.90;2.37;;;;;;;26.11;46.00;98943.81;7231369;40;21098;31
2023/07/19 07:38:35;;;;;;;4.67;2.60;;;;;;;26.22;43.93;98936.44;7230665;40;20265;31
2023/07/19 07:49:12;;;;;;;4.30;2.35;;;;;;;26.66;43.22;98932.03;7232394;40;21469;31
2023/07/19 07:54:47;;;;;;;4.70;2.30;;;;;;;26.75;41.27;98918.47;7220899;40;20257;31
2023/07/19 08:00:20;;;;;;;5.10;2.30;;;;;;;26.94;41.00;98915.97;7274735;40;20341;31
2023/07/19 08:05:56;;;;;;;5.95;2.45;;;;;;;27.24;40.52;98902.06;7239948;40;20270;31
2023/07/19 08:11:13;;;;;;;4.18;2.08;;;;;;;27.48;39.50;98899.47;7195022;40;20450;31
2023/07/19 08:16:33;;;;;;;3.80;2.10;;;;;;;27.66;38.96;98893.31;7251315;40;20252;31
2023/07/19 08:22:06;;;;;;;3.12;2.00;;;;;;;27.73;38.88;98886.31;7235687;40;20435;31
2023/07/19 08:27:24;;;;;;;4.40;2.00;;;;;;;27.76;37.55;98880.25;7189638;40;20340;31
2023/07/19 08:32:39;;;;;;;4.15;2.30;;;;;;;28.04;39.18;98886.16;7219559;40;20272;31
2023/07/19 08:43:15;;;;;;;6.32;2.90;;;;;;;28.30;43.23;98882.13;7254030;40;21320;31
2023/07/19 08:48:48;;;;;;;6.20;3.40;;;;;;;28.05;44.40;98877.53;7221591;40;20250;31
2023/07/19 08:54:23;;;;;;;6.22;3.80;;;;;;;28.25;45.03;98873.84;7233297;40;20246;31
2023/07/19 08:59:56;;;;;;;4.55;2.90;;;;;;;28.25;45.47;98864.69;7216589;40;20262;31
2023/07/19 09:05:28;;;;;;;5.00;3.26;;;;;;;28.30;44.10;98867.41;7155087;40;20258;31
2023/07/19 09:11:00;;;;;;;12.00;3.50;;;;;;;28.35;42.96;98859.84;7185705;40;20347;31
2023/07/19 09:21:47;;;;;;;7.32;3.25;;;;;;;28.50;44.43;98848.66;7183249;40;20294;31
2023/07/19 09:27:16;;;;;;;5.33;2.83;;;;;;;28.68;43.73;98835.97;7250609;40;20352;31
2023/07/19 09:32:34;;;;;;;3.45;2.85;;;;;;;28.91;43.86;98832.44;7237763;40;20386;31
2023/07/19 09:38:09;;;;;;;4.60;3.00;;;;;;;29.16;43.46;98833.25;7274668;40;20275;31
2023/07/19 09:43:44;;;;;;;6.57;2.83;;;;;;;29.24;40.64;98822.31;7226011;40;20447;31
2023/07/19 09:49:16;;;;;;;7.00;2.58;;;;;;;29.19;38.92;98829.88;7233641;40;20261;31
2023/07/19 09:54:49;;;;;;;5.62;2.64;;;;;;;29.58;39.53;98826.87;7176781;40;20274;31
2023/07/19 10:00:22;;;;;;;3.33;2.70;;;;;;;29.50;41.36;98798.66;7098716;40;20324;31
2023/07/19 10:05:54;;;;;;;3.90;2.20;;;;;;;29.84;38.68;98808.72;7156828;40;20255;31
2023/07/19 10:11:34;;;;;;;7.25;2.90;;;;;;;29.61;39.51;98802.13;7169091;40;20269;31
2023/07/19 10:17:04;;;;;;;6.40;2.30;;;;;;;29.39;35.73;98812.97;7250837;39;20290;31
2023/07/19 10:22:21;;;;;;;3.06;2.24;;;;;;;29.18;36.79;98823.47;7216410;40;20262;31
2023/07/19 10:27:54;;;;;;;6.43;2.60;;;;;;;28.86;38.44;98812.25;7193387;40;20289;31
2023/07/19 10:33:26;;;;;;;5.68;2.45;;;;;;;29.03;38.01;98812.59;7171829;40;20267;31
2023/07/19 10:39:01;;;;;;;5.50;2.45;;;;;;;29.22;38.03;98804.31;7178761;40;20310;31
2023/07/19 10:44:34;;;;;;;9.74;2.64;;;;;;;29.25;38.02;98785.09;7155646;40;20276;31
2023/07/19 10:50:03;;;;;;;6.15;2.40;;;;;;;29.26;36.84;98791.47;7194143;40;20257;31
2023/07/19 10:55:20;;;;;;;5.45;2.35;;;;;;;28.92;37.55;98805.47;7235591;40;20283;31
2023/07/19 11:00:56;;;;;;;4.10;2.60;;;;;;;28.71;40.98;98788.25;7259724;40;20357;31
2023/07/19 11:06:28;;;;;;;3.82;2.45;;;;;;;28.54;44.27;98776.75;7282633;39;20268;31
2023/07/19 11:12:03;;;;;;;4.40;2.85;;;;;;;28.78;43.17;98780.41;7233176;40;20258;31
2023/07/19 11:17:39;;;;;;;6.28;3.08;;;;;;;29.46;43.69;98785.66;7225959;40;20464;31
2023/07/19 11:23:15;;;;;;;6.78;2.75;;;;;;;29.51;41.34;98785.59;7219645;40;20278;31
2023/07/19 11:28:50;;;;;;;6.18;2.64;;;;;;;29.97;39.58;98780.19;7072652;40;21513;31
2023/07/19 11:34:21;;;;;;;7.33;2.80;;;;;;;29.87;39.70;98777.53;7218510;40;20357;31
2023/07/19 11:39:53;;;;;;;9.05;2.97;;;;;;;29.33;39.65;98773.34;7183904;40;20357;31
2023/07/19 11:45:26;;;;;;;3.94;2.90;;;;;;;29.06;39.85;98775.91;7153719;40;20243;31
2023/07/19 11:51:00;;;;;;;5.22;2.80;;;;;;;28.51;45.49;98814.25;7174745;40;20270;31
2023/07/19 11:56:17;;;;;;;7.70;3.66;;;;;;;26.43;56.74;98844.09;7167304;40;21460;31
2023/07/19 12:01:34;;;;;;;5.75;3.40;;;;;;;24.56;61.08;98829.75;7234559;40;20444;31
2023/07/19 12:07:11;;;;;;;5.60;3.30;;;;;;;24.45;62.49;98822.47;7232628;40;20378;31
2023/07/19 12:17:45;;;;;;;8.10;4.10;;;;;;;25.69;64.25;98800.44;7228848;40;20262;31
2023/07/19 12:23:19;;;;;;;5.93;3.77;;;;;;;26.42;64.73;98793.50;7252216;40;20363;31
2023/07/19 12:28:54;;;;;;;6.73;3.60;;;;;;;26.82;65.68;98797.28;7220642;40;20274;31
2023/07/19 12:39:32;;;;;;;4.82;3.45;;;;;;;27.79;58.74;98771.59;7152160;40;21047;31
2023/07/19 12:49:53;;;;;;;5.90;3.70;;;;;;;27.87;59.46;98763.78;7199644;40;20354;31
2023/07/19 13:00:36;;;;;;;5.82;3.10;;;;;;;28.38;56.91;98744.78;7293465;40;20907;31
2023/07/19 13:05:55;;;;;;;7.80;4.00;;;;;;;27.94;56.87;98748.50;7296279;39;20256;31
2023/07/19 13:11:29;;;;;;;7.30;3.50;;;;;;;28.23;56.38;98729.94;7297106;40;20500;31
2023/07/19 13:17:06;;;;;;;5.40;3.47;;;;;;;28.52;54.37;98742.97;7255790;40;20426;31
2023/07/19 13:22:28;;;;;;;7.00;3.40;;;;;;;28.79;50.82;98715.47;7254320;40;20257;31
2023/07/19 13:28:02;;;;;;;5.30;3.00;;;;;;;28.70;49.97;98710.84;7215030;40;20362;31
2023/07/19 13:33:35;;;;;;;4.53;3.30;;;;;;;28.90;51.61;98718.94;7213103;40;20323;31
2023/07/19 13:39:07;;;;;;;6.35;3.17;;;;;;;28.82;51.03;98725.16;7213749;40;22584;31
2023/07/19 13:44:25;;;;;;;5.50;3.05;;;;;;;28.58;49.25;98711.25;7247759;40;20273;31
2023/07/19 13:55:06;;;;;;;7.05;3.10;;;;;;;28.91;45.86;98718.66;7240207;40;20447;31
2023/07/19 14:05:45;;;;;;;4.97;2.85;;;;;;;28.86;41.61;98712.34;7247420;39;21303;31
2023/07/19 14:16:23;;;;;;;6.22;2.92;;;;;;;29.29;40.80;98716.75;7282461;39;20276;31
2023/07/19 14:27:03;;;;;;;5.90;2.62;;;;;;;29.56;40.08;98724.41;7313433;39;20313;31
2023/07/19 14:32:36;;;;;;;3.92;2.50;;;;;;;29.44;37.63;98721.25;7275596;39;20252;31
2023/07/19 14:42:57;;;;;;;4.60;2.60;;;;;;;29.55;37.40;98720.78;7211437;40;20288;31
2023/07/19 14:53:35;;;;;;;3.40;2.20;;;;;;;29.37;38.00;98712.47;7224939;40;20291;31
2023/07/19 14:58:52;;;;;;;5.35;2.00;;;;;;;29.31;36.66;98710.91;7275798;39;20261;31
2023/07/19 15:04:27;;;;;;;5.67;1.90;;;;;;;29.60;35.93;98714.31;7274273;40;20509;31
2023/07/19 15:10:00;;;;;;;1.95;1.70;;;;;;;29.75;36.58;98714.06;7289764;39;20279;31
2023/07/19 15:15:19;;;;;;;5.30;2.00;;;;;;;29.78;35.60;98721.81;7241839;40;20335;31
2023/07/19 15:20:35;;;;;;;3.10;1.90;;;;;;;29.77;35.78;98722.09;7175782;40;20266;31
2023/07/19 15:26:08;;;;;;;3.20;2.05;;;;;;;29.78;35.38;98718.19;7171272;40;20335;31
2023/07/19 15:31:40;;;;;;;4.24;1.90;;;;;;;29.85;34.31;98715.84;7214729;40;20280;31
2023/07/19 15:37:12;;;;;;;5.15;2.10;;;;;;;29.94;35.19;98725.16;7178384;40;20274;31
2023/07/19 15:42:45;;;;;;;4.25;2.00;;;;;;;29.91;34.93;98714.66;7178444;40;20337;31
2023/07/19 15:48:02;;;;;;;3.36;2.12;;;;;;;29.71;34.97;98718.56;7214604;40;20269;31
2023/07/19 15:53:19;;;;;;;2.75;1.75;;;;;;;29.83;36.09;98724.50;7203638;40;20258;31
2023/07/19 15:58:52;;;;;;;5.20;2.33;;;;;;;29.65;35.57;98724.53;7200366;40;20269;31
2023/07/19 16:04:27;;;;;;;6.85;2.00;;;;;;;29.27;35.64;98709.81;7155492;40;20315;31
2023/07/19 16:09:44;;;;;;;4.00;2.20;;;;;;;29.29;35.46;98716.75;7182931;40;20253;31
2023/07/19 16:15:17;;;;;;;2.75;1.85;;;;;;;29.21;37.02;98716.56;7225608;40;20444;31
2023/07/19 16:20:34;;;;;;;5.30;2.00;;;;;;;29.17;35.95;98721.91;7221054;40;20456;31
2023/07/19 16:25:52;;;;;;;3.30;1.80;;;;;;;29.13;36.75;98726.41;7233944;40;20455;31
2023/07/19 16:31:25;;;;;;;2.67;1.80;;;;;;;29.12;36.13;98730.28;7222006;40;20256;31
2023/07/19 16:36:57;;;;;;;4.70;2.06;;;;;;;29.15;35.22;98745.53;7238262;40;20311;31
2023/07/19 16:42:14;;;;;;;4.40;1.90;;;;;;;29.19;36.77;98744.63;7279743;40;20249;31
2023/07/19 16:47:47;;;;;;;5.80;2.10;;;;;;;29.16;36.87;98728.56;7278897;40;20267;31
2023/07/19 16:53:23;;;;;;;7.30;1.85;;;;;;;28.98;36.33;98740.47;7236296;40;20258;31
2023/07/19 16:58:55;;;;;;;4.20;2.10;;;;;;;28.73;36.27;98738.03;7237927;40;20340;31
2023/07/19 17:04:29;;;;;;;2.40;1.87;;;;;;;28.60;36.92;98743.16;7233973;40;20257;31
2023/07/19 17:10:00;;;;;;;3.12;1.80;;;;;;;28.52;38.11;98742.97;7213622;40;20273;31
2023/07/19 17:15:18;;;;;;;4.14;1.88;;;;;;;28.40;37.38;98743.34;7148105;40;20259;31
2023/07/19 17:20:54;;;;;;;2.78;1.73;;;;;;;28.29;37.50;98752.91;7116385;41;20259;31
2023/07/19 17:26:26;;;;;;;2.90;1.80;;;;;;;28.21;37.25;98757.13;7119309;40;20243;31
2023/07/19 17:31:46;;;;;;;3.95;1.90;;;;;;;28.02;38.26;98760.91;7168007;40;20268;31
2023/07/19 17:37:20;;;;;;;2.65;1.90;;;;;;;27.98;38.36;98760.66;7202344;40;20469;31
2023/07/19 17:47:57;;;;;;;3.15;1.60;;;;;;;27.67;38.33;98771.16;7218433;40;21241;31
2023/07/19 17:53:29;;;;;;;6.10;2.30;;;;;;;27.61;38.68;98772.28;7239149;40;20398;31
2023/07/19 17:59:04;;;;;;;2.60;1.80;;;;;;;27.47;38.45;98773.22;7200810;40;20266;31
2023/07/19 18:04:22;;;;;;;3.04;1.80;;;;;;;27.34;37.01;98778.25;7246224;40;20248;31
2023/07/19 18:09:58;;;;;;;3.34;1.90;;;;;;;27.18;38.30;98786.94;7243917;40;20275;31
2023/07/19 18:15:16;;;;;;;2.30;1.45;;;;;;;27.17;37.79;98801.88;7253902;40;20281;31
2023/07/19 18:25:50;;;;;;;5.20;1.70;;;;;;;26.93;38.45;98811.94;7274408;40;20294;31
2023/07/19 18:31:22;;;;;;;3.85;1.70;;;;;;;26.89;37.61;98812.53;7241565;40;20380;31
2023/07/19 18:36:43;;;;;;;7.80;1.70;;;;;;;26.92;38.25;98821.34;7249564;40;20254;31
2023/07/19 18:42:16;;;;;;;2.92;1.55;;;;;;;26.67;37.64;98834.13;7051857;40;20379;31
2023/07/19 18:47:48;;;;;;;5.68;1.85;;;;;;;26.47;38.26;98828.63;7229503;40;20261;31
2023/07/19 18:53:25;;;;;;;3.73;1.70;;;;;;;26.35;38.21;98837.22;7233788;40;20249;31
2023/07/19 18:58:56;;;;;;;2.10;1.50;;;;;;;26.32;38.82;98845.25;7233125;40;20254;31
2023/07/19 19:04:28;;;;;;;3.90;2.10;;;;;;;26.25;38.87;98852.97;7193200;40;21279;31
2023/07/19 19:09:46;;;;;;;2.47;1.60;;;;;;;26.24;38.90;98865.16;7253021;40;20379;31
2023/07/19 19:15:22;;;;;;;5.35;1.60;;;;;;;25.95;38.92;98860.09;7242506;40;20265;31
2023/07/19 19:21:07;;;;;;;3.42;1.70;;;;;;;25.93;39.19;98864.25;7218472;40;20262;31
2023/07/19 19:26:25;;;;;;;3.53;1.60;;;;;;;25.83;39.06;98869.75;7223239;40;21213;31
2023/07/19 19:32:01;;;;;;;3.57;1.60;;;;;;;25.76;39.79;98875.53;7272477;40;20257;31
2023/07/19 19:37:21;;;;;;;3.22;1.52;;;;;;;25.79;40.02;98883.28;7228225;40;20250;31
2023/07/19 19:42:52;;;;;;;2.92;1.70;;;;;;;25.78;40.43;98889.91;7253093;40;20363;31
2023/07/19 19:48:26;;;;;;;2.65;1.70;;;;;;;25.59;40.72;98894.25;7252801;40;20281;31
2023/07/19 19:53:46;;;;;;;6.30;1.80;;;;;;;25.50;41.47;98899.44;7200726;40;20282;31
2023/07/19 19:59:03;;;;;;;3.72;1.65;;;;;;;25.43;41.76;98909.09;7175077;40;20434;31
2023/07/19 20:04:40;;;;;;;2.90;1.70;;;;;;;25.22;41.27;98907.34;7193582;40;20356;31
2023/07/19 20:10:00;;;;;;;2.45;1.70;;;;;;;25.24;41.45;98917.00;7179535;40;20340;31
2023/07/19 20:15:20;;;;;;;4.40;1.90;;;;;;;25.10;41.87;98929.62;7211449;40;20268;31
2023/07/19 20:20:56;;;;;;;2.70;2.27;;;;;;;25.02;43.04;98939.22;7246068;40;20440;31
2023/07/19 20:26:13;;;;;;;2.70;2.03;;;;;;;25.02;42.76;98950.25;7209650;40;20482;31
2023/07/19 20:36:51;;;;;;;4.30;2.30;;;;;;;24.84;42.30;98950.66;7249924;40;20462;31
2023/07/19 20:42:23;;;;;;;4.80;2.55;;;;;;;24.63;41.01;98957.94;7196794;40;20274;31
2023/07/19 20:47:58;;;;;;;4.20;2.65;;;;;;;24.58;41.24;98957.06;7169012;40;20278;31
2023/07/19 20:58:35;;;;;;;4.27;2.43;;;;;;;24.48;40.71;98960.59;7216041;40;21136;31
2023/07/19 21:04:07;;;;;;;2.83;2.30;;;;;;;24.51;41.21;98959.22;7253660;40;20257;31
2023/07/19 21:09:27;;;;;;;5.43;2.40;;;;;;;24.43;41.01;98951.44;7263114;40;20262;31
2023/07/19 21:15:02;;;;;;;5.03;2.57;;;;;;;24.43;42.34;98962.47;7249928;40;21142;31
2023/07/19 21:20:37;;;;;;;3.12;2.28;;;;;;;24.43;41.35;98954.22;7211401;40;20272;31
2023/07/19 21:26:12;;;;;;;4.37;2.50;;;;;;;24.29;41.91;98962.06;7236202;40;20254;31
2023/07/19 21:31:49;;;;;;;6.17;2.50;;;;;;;24.14;41.44;98961.88;7152513;40;20303;31
2023/07/19 21:37:24;;;;;;;4.60;2.30;;;;;;;24.14;41.41;98954.44;7204773;40;20268;31
2023/07/19 21:42:59;;;;;;;3.85;2.10;;;;;;;24.07;42.50;98962.09;7156006;40;20247;31
2023/07/19 21:48:33;;;;;;;2.70;1.85;;;;;;;23.95;41.07;98961.41;7173362;40;20262;31
2023/07/19 21:54:08;;;;;;;2.83;2.03;;;;;;;23.98;42.37;98971.06;7168810;40;20350;31
2023/07/19 21:59:28;;;;;;;3.80;2.17;;;;;;;23.98;42.27;98976.59;7191833;40;20265;31
2023/07/19 22:05:04;;;;;;;4.18;2.12;;;;;;;23.93;42.42;98980.09;7217214;40;20302;31
2023/07/19 22:10:24;;;;;;;3.43;2.03;;;;;;;23.78;42.81;98985.47;7226727;40;20319;31
2023/07/19 22:15:59;;;;;;;2.90;1.87;;;;;;;23.84;42.96;98987.16;7203119;40;20363;31
2023/07/19 22:21:35;;;;;;;3.25;2.00;;;;;;;23.73;42.22;99002.75;7218329;40;20254;31
2023/07/19 22:26:55;;;;;;;2.90;1.90;;;;;;;23.69;42.95;99000.75;7173737;40;20442;31
2023/07/19 22:32:15;;;;;;;2.45;1.80;;;;;;;23.68;42.76;99001.84;7216296;40;20250;31
2023/07/19 22:37:51;;;;;;;3.30;1.70;;;;;;;23.55;43.53;98996.72;7243949;40;20253;31
2023/07/19 22:43:23;;;;;;;2.97;1.85;;;;;;;23.54;42.49;99000.56;7167168;40;20460;31
2023/07/19 22:48:58;;;;;;;3.13;2.10;;;;;;;23.38;42.73;99009.66;7173853;40;20255;31
2023/07/19 22:54:34;;;;;;;2.50;1.70;;;;;;;23.29;42.91;99001.84;7178471;40;20266;31
2023/07/19 23:00:09;;;;;;;3.20;1.80;;;;;;;23.21;43.30;99009.72;7150146;40;20262;31
2023/07/19 23:05:44;;;;;;;4.25;2.03;;;;;;;23.18;43.92;99010.19;7164130;40;20259;31
2023/07/19 23:11:20;;;;;;;2.47;1.52;;;;;;;23.11;43.39;99010.37;7125552;40;20262;31
2023/07/19 23:21:57;;;;;;;3.37;1.90;;;;;;;22.95;43.96;99011.22;7151248;40;21099;31
2023/07/19 23:32:34;;;;;;;2.67;1.80;;;;;;;22.52;45.52;99016.50;7275423;40;21154;31
2023/07/19 23:37:52;;;;;;;2.98;1.80;;;;;;;22.32;45.96;99015.09;7297824;40;20275;31
2023/07/19 23:43:26;;;;;;;2.40;2.00;;;;;;;22.33;46.25;99015.91;7234079;40;20276;31
2023/07/19 23:49:00;;;;;;;3.53;1.92;;;;;;;22.54;45.80;99020.69;7235204;40;20549;31
2023/07/19 23:54:18;;;;;;;3.12;2.00;;;;;;;22.37;45.72;99008.84;7232235;40;20293;31
